West Bend, WI

5:45 PM CST on February 19, 2017 (GMT -0600)
West Bend Municipal

Weather History for KETB - February, 2014

Change the Weather History Date:

Thursday, February 20, 2014

  Actual Average Record
Temperature  
Mean Temperature 34 °F -  
Max Temperature 37 °F 34 °F 58 °F (1930)
Min Temperature 32 °F 16 °F -22 °F (1929)
Degree Days  
Heating Degree Days 30    
Moisture  
Dew Point 30 °F    
Average Humidity 89    
Maximum Humidity 100    
Minimum Humidity 70    
Precipitation  
Precipitation 0.25 in - - ()
Sea Level Pressure  
Sea Level Pressure 29.56 in    
Wind  
Wind Speed 8 mph (ESE)    
Max Wind Speed 24 mph    
Max Gust Speed 41 mph    
Visibility 6 miles    
Events Rain , Snow    
Averages and records for this station are not official NWS values.
T = Trace of Precipitation, MM = Missing Value Source: NWS Daily Summary

Daily Weather History Graph

Daily Weather History Graph

Search for Another Location

Airport or City:

Trip Planner

Search our weather history database for the weather conditions in past years. The results will help you decide how hot, cold, wet, or windy it might be!

Date:

Astronomy

Feb. 20, 2014 Rise Set
Actual Time 6:43 AM CST 5:29 PM CST
Civil Twilight 6:14 AM CST 5:58 PM CST
Nautical Twilight 5:40 AM CST 6:32 PM CST
Astronomical Twilight 5:07 AM CST 7:05 PM CST
Moon 11:35 PM CST (2/20) 9:15 AM CST (2/20)
Length of Visible Light 11h 44m
Length of Day
10h 46m
Waning Gibbous, 70% of the Moon is Illuminated
Feb 20
Waning Gibbous
Feb 22
Last Quarter
Mar 1
New
Mar 8
First Quarter
Mar 16
Full

Hourly Weather History & Observations

Time (CST) Temp. Windchill Dew Point Humidity Pressure Visibility Wind Dir Wind Speed Gust Speed Precip Events Conditions
12:15 AM 32.0 °F - 24.8 °F 75% 29.88 in 10.0 mi Calm Calm - N/A   Mostly Cloudy
12:35 AM 32.0 °F - 24.8 °F 75% 29.88 in 10.0 mi Calm Calm - N/A   Overcast
12:55 AM 32.0 °F 28.7 °F 24.8 °F 75% 29.88 in 10.0 mi SSE 3.5 mph - N/A   Mostly Cloudy
1:15 AM 32.0 °F 26.4 °F 24.8 °F 75% 29.88 in 10.0 mi South 5.8 mph - N/A   Mostly Cloudy
1:19 AM 32.0 °F 27.5 °F 24.8 °F 75% 29.88 in 10.0 mi South 4.6 mph - N/A   Mostly Cloudy
1:35 AM 32.0 °F - 24.8 °F 75% 29.88 in 10.0 mi Calm Calm - N/A   Overcast
1:55 AM 32.0 °F - 24.8 °F 75% 29.87 in 10.0 mi Calm Calm - N/A   Overcast
2:00 AM 32.0 °F - 24.8 °F 75% 29.87 in 10.0 mi Calm Calm - N/A   Overcast
2:14 AM 32.0 °F 28.7 °F 24.8 °F 75% 29.85 in 10.0 mi SE 3.5 mph - N/A   Overcast
2:15 AM 32.0 °F 28.7 °F 24.8 °F 75% 29.85 in 10.0 mi SE 3.5 mph - N/A   Overcast
2:35 AM 32.0 °F 28.7 °F 24.8 °F 75% 29.84 in 10.0 mi SE 3.5 mph - N/A   Overcast
2:55 AM 32.0 °F - 26.6 °F 80% 29.83 in 10.0 mi Calm Calm - N/A   Overcast
3:15 AM 32.0 °F - 26.6 °F 80% 29.82 in 10.0 mi Calm Calm - N/A   Overcast
3:19 AM 32.0 °F - 24.8 °F 75% 29.81 in 10.0 mi Calm Calm - N/A   Overcast
3:35 AM 32.0 °F 28.7 °F 26.6 °F 80% 29.80 in 10.0 mi East 3.5 mph - N/A   Overcast
3:36 AM 33.8 °F 30.8 °F 24.8 °F 70% 29.80 in 10.0 mi East 3.5 mph - N/A   Overcast
3:55 AM 32.0 °F 28.7 °F 26.6 °F 80% 29.80 in 10.0 mi East 3.5 mph - N/A   Overcast
4:15 AM 32.0 °F 26.4 °F 26.6 °F 80% 29.80 in 10.0 mi East 5.8 mph - N/A   Overcast
4:19 AM 32.0 °F 26.4 °F 26.6 °F 80% 29.80 in 10.0 mi East 5.8 mph - N/A   Overcast
4:35 AM 32.0 °F 26.4 °F 28.4 °F 87% 29.80 in 7.0 mi ESE 5.8 mph - N/A   Overcast
4:39 AM 32.0 °F 27.5 °F 28.4 °F 87% 29.80 in 7.0 mi ESE 4.6 mph - N/A   Overcast
4:55 AM 32.0 °F 28.7 °F 28.4 °F 87% 29.79 in 7.0 mi ESE 3.5 mph - N/A   Overcast
4:59 AM 33.8 °F 29.6 °F 28.4 °F 81% 29.79 in 7.0 mi ESE 4.6 mph - N/A   Overcast
5:15 AM 32.0 °F 25.6 °F 28.4 °F 87% 29.79 in 10.0 mi SE 6.9 mph - N/A   Overcast
5:19 AM 33.8 °F 27.7 °F 28.4 °F 81% 29.78 in 10.0 mi ESE 6.9 mph - N/A   Overcast
5:35 AM 33.8 °F 28.6 °F 28.4 °F 81% 29.78 in 7.0 mi ESE 5.8 mph - N/A   Drizzle
5:38 AM 33.8 °F 29.6 °F 28.4 °F 81% 29.78 in 7.0 mi SE 4.6 mph - N/A   Drizzle
5:55 AM 33.8 °F 27.7 °F 30.2 °F 87% 29.78 in 5.0 mi SE 6.9 mph - N/A Rain Light Rain
6:15 AM 33.8 °F 27.7 °F 32.0 °F 93% 29.77 in 3.0 mi SE 6.9 mph - 0.01 in Rain Rain
6:35 AM 32.0 °F 26.4 °F 32.0 °F 100% 29.75 in 3.0 mi ESE 5.8 mph - 0.02 in Rain Light Rain
6:38 AM 33.8 °F 28.6 °F 30.2 °F 87% 29.75 in 3.0 mi ESE 5.8 mph - 0.02 in Rain Light Rain
6:55 AM 33.8 °F 28.6 °F 32.0 °F 93% 29.75 in 2.5 mi SE 5.8 mph - 0.03 in Rain Light Rain
6:59 AM 33.8 °F 27.7 °F 32.0 °F 93% 29.75 in 2.5 mi ESE 6.9 mph - 0.03 in Rain Light Rain
7:15 AM 32.0 °F 26.4 °F 32.0 °F 100% 29.76 in 4.0 mi ESE 5.8 mph - 0.01 in Rain Light Rain
7:19 AM 33.8 °F 28.6 °F 30.2 °F 87% 29.75 in 4.0 mi ESE 5.8 mph - 0.01 in Rain Light Rain
7:35 AM 32.0 °F 24.2 °F 32.0 °F 100% 29.75 in 2.5 mi ESE 9.2 mph - 0.01 in Snow Light Snow
7:39 AM 33.8 °F 27.0 °F 30.2 °F 87% 29.75 in 3.0 mi ESE 8.1 mph - 0.01 in Snow Light Snow
7:55 AM 32.0 °F 23.6 °F 32.0 °F 100% 29.75 in 3.0 mi ESE 10.4 mph - 0.01 in Snow Light Snow
8:19 AM 33.8 °F 25.8 °F 32.0 °F 93% 29.73 in 10.0 mi East 10.4 mph 16.1 mph N/A Rain Light Rain
8:35 AM 33.8 °F 25.8 °F 32.0 °F 93% 29.72 in 10.0 mi ESE 10.4 mph - N/A   Overcast
8:39 AM 35.6 °F 27.5 °F 33.8 °F 93% 29.72 in 10.0 mi ESE 11.5 mph - N/A   Overcast
8:55 AM 35.6 °F 26.6 °F 32.0 °F 87% 29.70 in 10.0 mi ESE 13.8 mph 18.4 mph N/A   Overcast
8:59 AM 35.6 °F 26.2 °F 33.8 °F 93% 29.68 in 10.0 mi ESE 15.0 mph 18.4 mph N/A   Overcast
9:15 AM 35.6 °F 25.9 °F 32.0 °F 87% 29.67 in 7.0 mi ESE 16.1 mph 20.7 mph N/A   Overcast
9:18 AM 35.6 °F 25.2 °F 32.0 °F 87% 29.65 in 7.0 mi ESE 18.4 mph 27.6 mph N/A   Overcast
9:35 AM 35.6 °F 26.2 °F 32.0 °F 87% 29.65 in 5.0 mi East 15.0 mph 26.5 mph N/A Rain Light Rain
9:39 AM 35.6 °F 26.2 °F 32.0 °F 87% 29.65 in 7.0 mi East 15.0 mph 26.5 mph N/A Rain Light Rain
9:55 AM 33.8 °F 23.5 °F 32.0 °F 93% 29.65 in 5.0 mi East 16.1 mph 26.5 mph N/A Rain Light Rain
9:59 AM 35.6 °F 24.8 °F 30.2 °F 81% 29.65 in 4.0 mi East 19.6 mph 26.5 mph N/A Rain Light Rain
10:15 AM 33.8 °F 25.3 °F 32.0 °F 93% 29.67 in 4.0 mi East 11.5 mph 23.0 mph N/A Snow Light Snow
10:18 AM 33.8 °F 24.3 °F 30.2 °F 87% 29.66 in 4.0 mi East 13.8 mph 23.0 mph N/A Snow Light Snow
10:35 AM 33.8 °F 24.3 °F 32.0 °F 93% 29.65 in 2.5 mi East 13.8 mph 19.6 mph N/A Snow Light Snow
10:39 AM 33.8 °F 24.3 °F 32.0 °F 93% 29.64 in 2.0 mi East 13.8 mph 25.3 mph N/A Rain Light Rain
10:55 AM 33.8 °F 24.3 °F 32.0 °F 93% 29.63 in 2.0 mi East 13.8 mph 23.0 mph N/A Rain Light Rain
10:59 AM 33.8 °F 23.9 °F 30.2 °F 87% 29.63 in 2.5 mi East 15.0 mph 23.0 mph N/A Rain Light Rain
11:15 AM 33.8 °F 23.2 °F 32.0 °F 93% 29.63 in 2.0 mi East 17.3 mph 27.6 mph N/A   Overcast
11:19 AM 33.8 °F 23.2 °F 30.2 °F 87% 29.62 in 1.8 mi East 17.3 mph 27.6 mph N/A   Overcast
11:35 AM 33.8 °F 23.9 °F 32.0 °F 93% 29.60 in 1.8 mi East 15.0 mph 25.3 mph N/A Snow Light Snow
11:39 AM 33.8 °F 23.5 °F 30.2 °F 87% 29.60 in 1.8 mi East 16.1 mph 25.3 mph N/A Snow Light Snow
11:55 AM 32.0 °F 22.1 °F 32.0 °F 100% 29.60 in 1.5 mi East 13.8 mph 21.9 mph N/A Rain Light Rain
12:15 PM 32.0 °F 21.6 °F 32.0 °F 100% 29.58 in 1.2 mi East 15.0 mph 23.0 mph N/A Snow Light Snow
12:35 PM 32.0 °F 21.6 °F 32.0 °F 100% 29.57 in 1.8 mi East 15.0 mph 20.7 mph N/A Snow Light Snow
12:40 PM 33.8 °F 24.8 °F 30.2 °F 87% 29.55 in 2.0 mi East 12.7 mph 17.3 mph N/A Snow Light Snow
12:55 PM 32.0 °F 22.1 °F 32.0 °F 100% 29.54 in 2.0 mi East 13.8 mph 21.9 mph N/A Rain Light Rain
1:15 PM 32.0 °F 22.5 °F 32.0 °F 100% 29.52 in 2.5 mi East 12.7 mph 19.6 mph N/A Rain Light Rain
1:35 PM 32.0 °F 23.0 °F 32.0 °F 100% 29.51 in 3.0 mi East 11.5 mph - N/A   Overcast
1:55 PM 32.0 °F 21.2 °F 32.0 °F 100% 29.46 in 2.5 mi East 16.1 mph 21.9 mph N/A   Overcast
2:15 PM 32.0 °F 21.2 °F 32.0 °F 100% 29.44 in 4.0 mi East 16.1 mph 23.0 mph N/A   Overcast
2:35 PM 32.0 °F 21.2 °F 32.0 °F 100% 29.42 in 5.0 mi East 16.1 mph 19.6 mph N/A   Overcast
2:55 PM 32.0 °F 21.2 °F 32.0 °F 100% 29.41 in 7.0 mi East 16.1 mph 25.3 mph N/A   Overcast
3:15 PM 32.0 °F 20.5 °F 32.0 °F 100% 29.37 in 7.0 mi East 18.4 mph 25.3 mph N/A   Overcast
3:19 PM 33.8 °F 23.2 °F 30.2 °F 87% 29.38 in 5.0 mi East 17.3 mph 25.3 mph N/A   Overcast
3:35 PM 32.0 °F 21.2 °F 32.0 °F 100% 29.38 in 5.0 mi East 16.1 mph 23.0 mph N/A   Overcast
3:39 PM 33.8 °F 23.9 °F 32.0 °F 93% 29.38 in 5.0 mi East 15.0 mph 29.9 mph N/A   Overcast
3:55 PM 32.0 °F 21.2 °F 32.0 °F 100% 29.35 in 4.0 mi East 16.1 mph 23.0 mph N/A   Overcast
3:56 PM 33.8 °F 22.5 °F 32.0 °F 93% 29.35 in 4.0 mi East 19.6 mph 25.3 mph N/A   Overcast
4:15 PM 32.0 °F 20.5 °F 32.0 °F 100% 29.32 in 3.0 mi East 18.4 mph 24.2 mph N/A   Drizzle
4:35 PM 32.0 °F 21.2 °F 32.0 °F 100% 29.30 in 1.5 mi East 16.1 mph 33.4 mph 0.02 in Snow Light Snow
4:55 PM 32.0 °F 20.8 °F 32.0 °F 100% 29.27 in 1.2 mi East 17.3 mph 26.5 mph 0.03 in Snow Light Snow
5:15 PM 32.0 °F 20.5 °F 32.0 °F 100% 29.26 in 1.0 mi ESE 18.4 mph 27.6 mph N/A Snow Light Snow
5:35 PM 33.8 °F 23.5 °F 32.0 °F 93% 29.24 in 1.2 mi ESE 16.1 mph 24.2 mph 0.01 in Snow Light Snow
5:55 PM 33.8 °F 24.8 °F 32.0 °F 93% 29.26 in 1.2 mi SE 12.7 mph 23.0 mph 0.13 in Snow Light Snow
6:15 PM 33.8 °F 23.5 °F 32.0 °F 93% 29.22 in 3.0 mi ESE 16.1 mph 20.7 mph 0.05 in Rain Light Rain
6:35 PM 33.8 °F 23.9 °F 32.0 °F 93% 29.18 in 10.0 mi ESE 15.0 mph 21.9 mph 0.05 in   Overcast
6:55 PM 33.8 °F 23.9 °F 32.0 °F 93% 29.15 in 1.2 mi ESE 15.0 mph 20.7 mph 0.05 in   Overcast
7:15 PM 35.6 °F 27.5 °F 33.8 °F 93% 29.15 in 0.5 mi SE 11.5 mph 23.0 mph N/A Rain Light Rain
7:35 PM 35.6 °F 26.6 °F 33.8 °F 93% 29.13 in 0.5 mi ESE 13.8 mph 19.6 mph N/A Snow Light Snow
7:55 PM 35.6 °F 27.1 °F 33.8 °F 93% 29.11 in 0.5 mi SE 12.7 mph 20.7 mph N/A Rain Rain
8:15 PM 37.4 °F 30.8 °F 35.6 °F 93% 29.09 in 1.0 mi SSE 9.2 mph - N/A   Light Drizzle
8:35 PM 37.4 °F 28.5 °F 37.4 °F 100% 29.09 in 7.0 mi South 15.0 mph 24.2 mph N/A   Overcast
8:55 PM 37.4 °F 26.9 °F 35.6 °F 93% 29.09 in 10.0 mi SSW 20.7 mph 34.5 mph N/A   Overcast
9:15 PM 35.6 °F 24.2 °F 32.0 °F 87% 29.10 in 10.0 mi SSW 21.9 mph 41.4 mph N/A   Overcast
9:35 PM 33.8 °F 21.3 °F 32.0 °F 93% 29.10 in 10.0 mi SSW 24.2 mph 33.4 mph N/A   Overcast
9:55 PM 33.8 °F 22.5 °F 32.0 °F 93% 29.09 in 10.0 mi SSW 19.6 mph 31.1 mph N/A   Overcast
10:15 PM 33.8 °F 21.9 °F 30.2 °F 87% 29.09 in 10.0 mi SSW 21.9 mph 31.1 mph N/A   Overcast
10:35 PM 33.8 °F 22.2 °F 30.2 °F 87% 29.10 in 10.0 mi SSW 20.7 mph 33.4 mph N/A   Overcast
10:55 PM 33.8 °F 22.5 °F 30.2 °F 87% 29.10 in 10.0 mi SW 19.6 mph 32.2 mph N/A   Overcast
11:15 PM 33.8 °F 21.3 °F 30.2 °F 87% 29.10 in 10.0 mi SW 24.2 mph 35.7 mph N/A   Overcast
11:35 PM 33.8 °F 21.9 °F 30.2 °F 87% 29.10 in 10.0 mi SW 21.9 mph 28.8 mph N/A   Overcast
11:55 PM 33.8 °F 22.8 °F 30.2 °F 87% 29.10 in 10.0 mi SW 18.4 mph 35.7 mph N/A   Overcast